Time;durP1;ratioP1;P1;durP2;ratioP2;P2;SDS_P1;SDS_P2;PMS_P1;PMS_P2;Temp;Humidity;BMP_temperature;BMP_pressure;BME280_temperature;BME280_humidity;BME280_pressure;Samples;Min_cycle;Max_cycle;Signal;HPM_P1;HPM_P2
2023/06/27 00:02:34;;;;;;;3.63;2.80;;;;;;;17.72;100.00;99942.28;10540367;28;20382;-72
2023/06/27 00:07:38;;;;;;;4.28;3.38;;;;;;;17.59;100.00;99937.72;10540375;28;20036;-71
2023/06/27 00:12:39;;;;;;;4.00;2.97;;;;;;;17.58;100.00;99937.81;10540310;28;20047;-71
2023/06/27 00:17:41;;;;;;;4.10;3.25;;;;;;;17.82;100.00;99935.44;10544487;28;20051;-71
2023/06/27 00:22:46;;;;;;;4.95;3.30;;;;;;;17.79;100.00;99944.44;10549429;28;20443;-72
2023/06/27 00:27:47;;;;;;;4.20;3.28;;;;;;;18.02;100.00;99964.28;10547648;28;20094;-71
2023/06/27 00:32:49;;;;;;;4.35;3.95;;;;;;;17.69;100.00;99953.09;10547788;28;20074;-72
2023/06/27 00:37:51;;;;;;;6.40;4.35;;;;;;;17.56;100.00;99958.31;10547869;28;20044;-71
2023/06/27 00:42:53;;;;;;;5.22;3.03;;;;;;;17.59;100.00;99958.97;10547590;28;20071;-72
2023/06/27 00:48:00;;;;;;;6.53;3.80;;;;;;;17.41;100.00;99965.44;10547981;28;20038;-72
2023/06/27 00:53:02;;;;;;;7.83;3.80;;;;;;;17.53;100.00;99958.47;10548705;28;20059;-71
2023/06/27 00:58:06;;;;;;;7.10;3.28;;;;;;;17.36;100.00;99967.50;10545839;28;20290;-71
2023/06/27 01:03:07;;;;;;;4.47;2.80;;;;;;;17.44;100.00;99975.84;10546443;28;20492;-72
2023/06/27 01:08:14;;;;;;;6.20;3.17;;;;;;;17.66;100.00;99978.03;10545198;28;20044;-72
2023/06/27 01:13:33;;;;;;;3.80;2.67;;;;;;;17.52;100.00;99986.00;10544678;28;20109;-72
2023/06/27 01:18:40;;;;;;;5.75;2.63;;;;;;;17.52;100.00;99981.56;10545891;28;20044;-71
2023/06/27 01:23:58;;;;;;;11.63;2.95;;;;;;;17.39;100.00;99986.75;10545371;28;20497;-71
2023/06/27 01:29:01;;;;;;;4.80;2.47;;;;;;;17.45;100.00;99982.91;10543722;28;20036;-72
2023/06/27 01:34:05;;;;;;;5.22;2.20;;;;;;;17.19;100.00;99986.28;10545416;28;20039;-72
2023/06/27 01:39:21;;;;;;;7.03;2.22;;;;;;;17.03;100.00;99979.19;10544571;28;20040;-72
2023/06/27 01:44:24;;;;;;;5.90;2.70;;;;;;;16.90;100.00;99989.69;10527583;28;20405;-72
2023/06/27 01:49:26;;;;;;;4.13;2.25;;;;;;;17.10;100.00;99985.88;10544878;28;20044;-71
2023/06/27 01:54:28;;;;;;;5.25;1.80;;;;;;;17.02;100.00;99989.91;10544414;28;20036;-72
2023/06/27 01:59:29;;;;;;;6.63;2.40;;;;;;;16.95;100.00;100004.50;10544705;28;20118;-72
2023/06/27 02:04:32;;;;;;;4.43;2.22;;;;;;;16.81;100.00;100005.28;10543591;28;20509;-73
2023/06/27 02:09:34;;;;;;;2.47;2.05;;;;;;;16.83;100.00;100001.63;10543463;28;20047;-71
2023/06/27 02:14:36;;;;;;;4.68;2.45;;;;;;;16.95;100.00;100013.31;10543303;28;20040;-72
2023/06/27 02:19:39;;;;;;;3.40;2.10;;;;;;;16.92;100.00;100013.50;10524748;28;20056;-71
2023/06/27 02:24:41;;;;;;;5.38;2.67;;;;;;;16.81;100.00;100011.47;10541342;28;20152;-72
2023/06/27 02:29:42;;;;;;;3.75;2.13;;;;;;;16.90;100.00;100000.31;10541325;28;20040;-72
2023/06/27 02:34:44;;;;;;;5.78;2.22;;;;;;;16.75;100.00;100013.63;10540709;28;20126;-72
2023/06/27 02:39:47;;;;;;;3.38;2.17;;;;;;;16.84;100.00;100010.44;10540619;28;20052;-72
2023/06/27 02:44:48;;;;;;;2.63;1.80;;;;;;;16.90;100.00;100020.69;10539826;28;20126;-72
2023/06/27 02:49:50;;;;;;;7.25;2.10;;;;;;;16.73;100.00;100021.66;10542509;28;20060;-72
2023/06/27 02:54:52;;;;;;;4.10;2.50;;;;;;;16.83;100.00;100027.31;10541551;28;20093;-72
2023/06/27 02:59:54;;;;;;;4.85;2.10;;;;;;;16.87;100.00;100027.06;10523785;28;20066;-73
2023/06/27 03:04:56;;;;;;;7.00;2.30;;;;;;;16.92;100.00;100033.91;10507099;28;20051;-71
2023/06/27 03:09:58;;;;;;;3.95;2.08;;;;;;;16.68;100.00;100030.81;10539937;28;20039;-73
2023/06/27 03:15:03;;;;;;;5.97;2.30;;;;;;;16.43;100.00;100036.66;10542271;28;20115;-72
2023/06/27 03:20:06;;;;;;;4.15;1.83;;;;;;;16.37;100.00;100048.44;10498728;28;1190103;-72
2023/06/27 03:25:10;;;;;;;4.78;1.75;;;;;;;16.29;97.01;100048.00;10540595;28;20043;-73
2023/06/27 03:30:13;;;;;;;11.80;2.15;;;;;;;16.31;97.10;100049.66;10541774;28;20048;-73
2023/06/27 03:35:16;;;;;;;6.28;1.67;;;;;;;16.33;98.19;100057.50;10541173;28;20048;-72
2023/06/27 03:40:18;;;;;;;8.18;1.88;;;;;;;16.24;95.99;100058.88;10541359;28;20448;-72
2023/06/27 03:45:21;;;;;;;4.78;1.92;;;;;;;16.24;97.41;100060.66;10541772;28;20127;-73
2023/06/27 03:50:23;;;;;;;5.65;2.03;;;;;;;16.08;96.34;100061.50;10540942;28;20476;-72
2023/06/27 03:55:25;;;;;;;4.85;2.00;;;;;;;16.17;99.02;100067.25;10549790;28;20079;-72
2023/06/27 04:00:27;;;;;;;5.57;1.70;;;;;;;16.14;97.66;100073.56;10548397;28;20130;-73
2023/06/27 04:05:29;;;;;;;6.20;1.80;;;;;;;16.28;99.07;100073.69;10547583;28;20036;-72
2023/06/27 04:10:31;;;;;;;6.03;2.13;;;;;;;16.47;99.29;100078.84;10549817;28;20150;-73
2023/06/27 04:15:39;;;;;;;4.93;1.73;;;;;;;16.35;97.95;100076.88;10547824;28;20032;-73
2023/06/27 04:20:43;;;;;;;6.25;1.77;;;;;;;16.48;94.76;100072.59;10548154;28;20044;-72
2023/06/27 04:25:59;;;;;;;8.55;2.05;;;;;;;16.47;97.86;100080.63;10548242;28;20048;-73
2023/06/27 04:31:01;;;;;;;5.63;1.93;;;;;;;16.60;94.60;100084.31;10549623;28;20473;-73
2023/06/27 04:36:03;;;;;;;3.55;1.92;;;;;;;16.55;97.09;100084.56;10547304;28;20304;-73
2023/06/27 04:41:07;;;;;;;5.05;1.73;;;;;;;16.82;92.46;100079.56;10547644;28;20573;-73
2023/06/27 04:46:09;;;;;;;7.72;2.03;;;;;;;16.70;96.10;100095.28;10513708;28;20046;-73
2023/06/27 04:51:11;;;;;;;3.20;1.75;;;;;;;16.85;94.60;100097.09;10529575;28;20075;-73
2023/06/27 04:56:13;;;;;;;7.95;2.30;;;;;;;16.76;93.80;100097.63;10545918;28;20492;-72
2023/06/27 05:01:14;;;;;;;5.70;2.22;;;;;;;16.59;96.11;100087.91;10546857;28;20040;-73
2023/06/27 05:06:16;;;;;;;6.78;2.75;;;;;;;16.55;98.88;100089.88;10548450;28;20176;-72
2023/06/27 05:11:18;;;;;;;6.28;2.05;;;;;;;16.88;93.66;100107.56;10546970;28;20074;-72
2023/06/27 05:16:20;;;;;;;5.47;2.13;;;;;;;16.65;95.25;100093.75;10547400;28;20462;-72
2023/06/27 05:21:22;;;;;;;4.10;2.35;;;;;;;17.00;91.78;100104.22;10539525;22;20146;-69
2023/06/27 05:26:24;;;;;;;8.27;2.03;;;;;;;16.81;94.09;100106.19;10503663;28;20079;-70
2023/06/27 05:31:27;;;;;;;5.18;2.15;;;;;;;16.60;96.54;100111.72;10485996;28;20044;-70
2023/06/27 05:36:29;;;;;;;11.40;2.55;;;;;;;17.13;89.94;100113.19;10503802;28;20036;-70
2023/06/27 05:41:32;;;;;;;6.20;1.92;;;;;;;17.03;85.88;100109.31;10502867;28;20513;-70
2023/06/27 05:46:38;;;;;;;3.97;1.60;;;;;;;16.91;84.66;100118.00;10503464;28;20049;-70
2023/06/27 05:51:40;;;;;;;5.88;2.45;;;;;;;16.96;87.07;100123.06;10503584;28;20432;-71
2023/06/27 05:56:42;;;;;;;5.82;2.05;;;;;;;16.84;83.71;100128.09;10502306;28;20098;-70
2023/06/27 06:01:44;;;;;;;5.03;1.90;;;;;;;16.86;84.77;100126.19;10502495;28;20528;-70
2023/06/27 06:06:46;;;;;;;5.93;2.15;;;;;;;16.96;82.21;100131.88;10502646;28;20073;-69
2023/06/27 06:11:48;;;;;;;4.60;1.70;;;;;;;17.44;80.40;100131.78;10501975;28;20051;-69
2023/06/27 06:16:50;;;;;;;5.10;1.98;;;;;;;17.87;80.28;100128.31;10502260;28;20131;-70
2023/06/27 06:21:51;;;;;;;3.47;1.70;;;;;;;18.09;77.21;100130.53;10484855;28;20513;-69
2023/06/27 06:26:53;;;;;;;9.30;2.50;;;;;;;17.96;78.07;100128.72;10503323;28;20044;-70
2023/06/27 06:31:55;;;;;;;5.28;1.30;;;;;;;17.93;70.72;100134.19;10502026;28;20123;-69
2023/06/27 06:36:58;;;;;;;4.38;1.60;;;;;;;17.78;71.55;100134.19;10502662;28;20045;-69
2023/06/27 06:42:00;;;;;;;6.97;1.52;;;;;;;18.19;69.99;100144.09;10501109;28;20083;-69
2023/06/27 06:47:01;;;;;;;6.78;1.52;;;;;;;18.65;65.06;100144.75;10483141;28;20051;-69
2023/06/27 06:52:03;;;;;;;4.00;1.50;;;;;;;17.98;65.39;100150.75;10501065;28;20383;-70
2023/06/27 06:57:06;;;;;;;5.88;1.40;;;;;;;18.22;65.79;100151.91;10500372;28;20036;-70
2023/06/27 07:02:08;;;;;;;4.07;1.15;;;;;;;18.32;63.70;100152.19;10500668;28;20068;-70
2023/06/27 07:07:10;;;;;;;4.55;1.33;;;;;;;18.28;63.85;100148.00;10500428;28;20116;-70
2023/06/27 07:12:12;;;;;;;5.00;1.10;;;;;;;18.66;62.10;100143.81;10500322;28;20047;-70
2023/06/27 07:17:13;;;;;;;4.03;1.02;;;;;;;18.85;62.42;100142.66;10482212;28;20163;-70
2023/06/27 07:22:15;;;;;;;4.20;0.90;;;;;;;19.02;58.81;100146.91;10499414;28;20091;-71
2023/06/27 07:27:17;;;;;;;1.98;1.05;;;;;;;19.24;55.53;100147.19;10481508;28;20489;-70
2023/06/27 07:32:19;;;;;;;3.47;1.00;;;;;;;19.21;56.28;100146.53;10499306;28;20490;-73
2023/06/27 07:37:20;;;;;;;4.18;0.98;;;;;;;19.64;54.15;100140.09;10498539;28;20028;-73
2023/06/27 07:42:23;;;;;;;3.60;1.05;;;;;;;19.69;53.43;100136.25;10498027;28;20123;-73
2023/06/27 07:47:24;;;;;;;4.15;1.02;;;;;;;20.07;53.91;100125.63;10499999;28;20044;-72
2023/06/27 07:52:26;;;;;;;4.00;1.15;;;;;;;20.14;53.11;100126.88;10499862;28;20046;-73
2023/06/27 07:57:28;;;;;;;3.40;0.95;;;;;;;19.64;56.19;100118.75;10500053;28;20040;-74
2023/06/27 08:02:30;;;;;;;3.55;1.10;;;;;;;20.01;54.68;100110.03;10482040;28;20051;-73
2023/06/27 08:07:31;;;;;;;5.05;1.10;;;;;;;20.01;50.02;100108.25;10501438;28;20504;-73
2023/06/27 08:12:33;;;;;;;3.35;1.30;;;;;;;19.87;55.21;100116.31;10500123;28;20120;-73
2023/06/27 08:17:35;;;;;;;3.92;0.80;;;;;;;20.38;50.21;100106.50;10480783;28;20049;-74
2023/06/27 08:22:37;;;;;;;2.88;1.20;;;;;;;20.46;51.16;100107.78;10499481;28;20052;-73
2023/06/27 08:27:39;;;;;;;3.08;0.90;;;;;;;20.73;48.34;100108.47;10480635;28;20139;-73
2023/06/27 08:32:40;;;;;;;3.25;1.05;;;;;;;20.23;48.39;100104.94;10499468;28;20051;-73
2023/06/27 08:37:42;;;;;;;3.40;1.33;;;;;;;19.86;49.06;100098.63;10501958;28;20036;-73
2023/06/27 08:42:45;;;;;;;1.75;0.70;;;;;;;20.54;47.91;100100.94;10507283;28;20102;-73
2023/06/27 08:47:48;;;;;;;3.20;0.90;;;;;;;20.83;50.18;100092.63;10488937;28;20036;-73
2023/06/27 08:52:59;;;;;;;1.67;0.68;;;;;;;20.64;49.18;100101.97;10506325;28;20050;-73
2023/06/27 08:58:04;;;;;;;3.40;1.35;;;;;;;20.73;50.54;100105.81;10506871;28;20111;-72
2023/06/27 09:03:07;;;;;;;4.72;1.10;;;;;;;21.20;48.16;100087.22;10506517;28;20067;-71
2023/06/27 09:08:11;;;;;;;3.55;0.73;;;;;;;20.63;48.84;100096.75;10488791;28;20094;-71
2023/06/27 09:13:13;;;;;;;2.28;0.63;;;;;;;20.30;49.04;100097.31;10505077;28;20094;-71
2023/06/27 09:18:15;;;;;;;3.05;1.00;;;;;;;19.65;53.16;100093.78;10505423;28;20041;-71
2023/06/27 09:23:17;;;;;;;2.72;0.90;;;;;;;19.98;51.38;100096.94;10505377;28;20083;-72
2023/06/27 09:28:20;;;;;;;3.63;0.82;;;;;;;20.63;49.33;100083.41;10505186;28;20041;-72
2023/06/27 09:33:22;;;;;;;4.25;1.20;;;;;;;21.17;49.39;100093.66;10505134;28;20083;-72
2023/06/27 09:38:30;;;;;;;3.70;0.82;;;;;;;21.62;47.00;100078.63;10505041;28;20040;-72
2023/06/27 09:43:35;;;;;;;4.20;1.05;;;;;;;21.42;45.40;100081.97;10487223;28;20064;-72
2023/06/27 09:48:38;;;;;;;3.38;1.15;;;;;;;20.99;49.40;100103.03;10503851;28;20057;-73
2023/06/27 09:53:42;;;;;;;2.92;0.73;;;;;;;20.76;47.22;100091.34;10503973;28;20056;-72
2023/06/27 09:58:44;;;;;;;3.78;0.90;;;;;;;20.61;48.38;100090.66;10503704;28;20041;-73
2023/06/27 10:03:48;;;;;;;3.97;1.00;;;;;;;20.34;50.79;100080.97;10502979;28;20413;-72
2023/06/27 10:08:51;;;;;;;1.95;0.88;;;;;;;20.30;48.38;100082.16;10502430;28;20044;-73
2023/06/27 10:13:53;;;;;;;2.95;0.77;;;;;;;20.17;49.10;100086.66;10486020;28;20041;-71
2023/06/27 10:18:58;;;;;;;4.15;0.80;;;;;;;20.65;50.03;100070.78;10501873;28;20051;-72
2023/06/27 10:24:02;;;;;;;3.10;0.70;;;;;;;21.34;45.19;100069.22;10485687;28;20044;-72
2023/06/27 10:29:14;;;;;;;2.53;1.00;;;;;;;21.98;43.52;100066.03;10503283;28;20059;-73
2023/06/27 10:34:24;;;;;;;2.15;0.80;;;;;;;22.98;41.20;100056.22;10484666;28;20049;-71
2023/06/27 10:39:33;;;;;;;2.88;0.63;;;;;;;22.71;42.27;100059.31;10502829;28;20036;-72
2023/06/27 10:44:49;;;;;;;2.58;0.80;;;;;;;22.43;39.01;100060.69;10502509;28;20044;-72
2023/06/27 10:49:53;;;;;;;2.47;0.90;;;;;;;22.29;40.05;100045.75;10483834;28;20033;-71
2023/06/27 10:55:13;;;;;;;1.60;0.65;;;;;;;22.45;40.37;100040.00;10500573;28;20460;-70
2023/06/27 11:00:21;;;;;;;1.88;0.52;;;;;;;22.32;40.88;100047.34;10500399;28;20070;-71
2023/06/27 11:05:45;;;;;;;0.85;0.50;;;;;;;20.94;42.75;100046.38;10500939;28;20063;-72
2023/06/27 11:11:01;;;;;;;1.75;0.50;;;;;;;20.82;44.13;100043.69;10500426;28;20104;-72
2023/06/27 11:16:04;;;;;;;2.47;0.60;;;;;;;20.09;48.85;100044.50;10501006;28;20394;-72
2023/06/27 11:21:06;;;;;;;1.33;0.55;;;;;;;19.79;49.61;100057.31;10514712;22;20044;-76
2023/06/27 11:26:07;;;;;;;0.85;0.40;;;;;;;19.54;49.02;100048.34;10502657;28;20413;-76
2023/06/27 11:31:11;;;;;;;1.67;0.47;;;;;;;20.22;46.97;100054.31;10484466;28;20475;-74
2023/06/27 11:36:13;;;;;;;0.73;0.40;;;;;;;21.01;46.94;100039.63;10484113;28;20442;-75
2023/06/27 11:41:19;;;;;;;1.40;0.40;;;;;;;21.76;42.91;100031.22;10499979;28;20135;-75
2023/06/27 11:46:25;;;;;;;1.75;0.73;;;;;;;22.02;43.06;100026.50;10500159;28;20070;-75
2023/06/27 11:51:40;;;;;;;2.00;0.70;;;;;;;23.15;43.57;100025.28;10481038;28;20115;-76
2023/06/27 11:56:42;;;;;;;3.88;0.60;;;;;;;23.04;42.28;100018.16;10500268;28;20048;-75
2023/06/27 12:01:44;;;;;;;2.65;0.88;;;;;;;22.94;41.17;100011.88;10501057;28;20043;-75
2023/06/27 12:06:47;;;;;;;1.85;0.68;;;;;;;22.40;42.04;100002.00;10499178;28;20112;-76
2023/06/27 12:11:56;;;;;;;3.63;0.60;;;;;;;22.44;41.48;100013.34;10442764;28;20049;-75
2023/06/27 12:17:01;;;;;;;1.73;0.50;;;;;;;22.01;42.09;100001.56;10448953;28;20082;-75
2023/06/27 12:22:03;;;;;;;1.27;0.60;;;;;;;22.33;41.41;99993.63;10485658;28;20094;-74
2023/06/27 12:27:04;;;;;;;1.73;0.70;;;;;;;22.78;42.12;99985.47;10507295;28;20123;-74
2023/06/27 12:32:06;;;;;;;6.35;0.90;;;;;;;22.91;41.49;99975.47;10489872;28;20549;-74
2023/06/27 12:37:08;;;;;;;2.10;0.70;;;;;;;23.83;41.03;99967.56;10490100;28;20060;-77
2023/06/27 12:42:10;;;;;;;2.00;0.65;;;;;;;23.60;38.23;99963.34;10508514;28;20086;-73
2023/06/27 12:47:12;;;;;;;1.73;0.60;;;;;;;23.03;37.95;99949.44;10489902;28;20494;-74
2023/06/27 12:52:14;;;;;;;2.30;0.52;;;;;;;22.29;39.54;99941.31;10489593;28;20114;-74
2023/06/27 12:57:15;;;;;;;1.38;0.52;;;;;;;21.62;42.29;99928.00;10489308;28;20419;-73
2023/06/27 13:02:21;;;;;;;3.15;0.70;;;;;;;22.04;42.28;99918.31;10505432;28;20045;-74
2023/06/27 13:07:22;;;;;;;1.85;0.55;;;;;;;22.63;41.87;99912.59;10507236;28;20041;-73
2023/06/27 13:12:24;;;;;;;3.53;0.70;;;;;;;23.36;39.89;99896.56;10488136;28;20047;-72
2023/06/27 13:17:26;;;;;;;2.50;0.60;;;;;;;23.81;41.90;99904.25;10487384;28;20048;-73
2023/06/27 13:22:28;;;;;;;0.80;0.50;;;;;;;23.63;36.53;99906.72;10505488;28;20049;-73
2023/06/27 13:27:31;;;;;;;1.15;0.50;;;;;;;23.50;39.05;99906.94;10506593;28;20433;-73
2023/06/27 13:32:36;;;;;;;2.72;0.80;;;;;;;22.97;38.74;99900.84;10504552;28;20072;-73
2023/06/27 13:37:38;;;;;;;0.87;0.60;;;;;;;22.92;39.32;99906.63;10486085;28;20512;-72
2023/06/27 13:43:00;;;;;;;1.10;0.52;;;;;;;23.10;36.76;99906.88;10489723;28;20382;-73
2023/06/27 13:48:02;;;;;;;1.50;0.70;;;;;;;22.96;38.24;99905.38;10503751;28;20367;-73
2023/06/27 13:53:05;;;;;;;1.92;0.60;;;;;;;22.80;39.13;99902.25;10485508;28;20075;-74
2023/06/27 13:58:07;;;;;;;2.85;0.70;;;;;;;22.37;39.10;99917.44;10484789;28;20063;-72
2023/06/27 14:03:09;;;;;;;1.30;0.80;;;;;;;21.44;43.68;99949.00;10486131;28;20045;-74
2023/06/27 14:08:10;;;;;;;5.13;1.23;;;;;;;20.46;45.35;99958.25;10503984;28;20104;-76
2023/06/27 14:13:12;;;;;;;2.55;0.60;;;;;;;20.08;47.85;99943.22;10504294;28;20070;-74
2023/06/27 14:18:14;;;;;;;1.52;0.50;;;;;;;19.94;48.22;99933.53;10503816;28;20052;-74
2023/06/27 14:23:17;;;;;;;0.82;0.60;;;;;;;19.68;48.35;99932.75;10485400;28;20076;-74
2023/06/27 14:28:22;;;;;;;2.05;0.70;;;;;;;19.73;48.87;99927.94;10502202;28;20040;-74
2023/06/27 14:33:24;;;;;;;1.58;0.55;;;;;;;19.79;45.95;99916.84;10502481;28;20401;-74
2023/06/27 14:38:26;;;;;;;1.50;0.60;;;;;;;19.94;46.13;99911.34;10501844;28;20040;-75
2023/06/27 14:43:29;;;;;;;1.45;0.40;;;;;;;21.11;45.79;99912.34;10502361;28;20086;-75
2023/06/27 14:48:31;;;;;;;0.77;0.40;;;;;;;21.77;42.70;99912.53;10502157;28;20049;-75
2023/06/27 14:53:33;;;;;;;2.15;0.60;;;;;;;22.00;41.21;99897.28;10503701;28;20402;-75
2023/06/27 14:58:36;;;;;;;2.58;0.50;;;;;;;22.90;38.23;99896.03;10504977;28;20032;-75
2023/06/27 15:03:39;;;;;;;1.55;0.45;;;;;;;23.45;37.38;99889.56;10502126;28;20493;-74
2023/06/27 15:08:41;;;;;;;1.08;0.40;;;;;;;23.47;38.33;99888.44;10500444;28;20182;-74
2023/06/27 15:13:43;;;;;;;1.38;0.68;;;;;;;23.28;39.61;99881.13;10500754;28;20075;-75
2023/06/27 15:18:45;;;;;;;0.95;0.50;;;;;;;23.27;38.19;99882.13;10482222;28;20148;-73
2023/06/27 15:23:50;;;;;;;1.70;1.05;;;;;;;21.98;43.63;99899.25;10484187;28;20054;-75
2023/06/27 15:28:52;;;;;;;1.15;0.70;;;;;;;21.59;44.80;99909.50;10501730;28;20478;-75
2023/06/27 15:33:54;;;;;;;3.30;0.77;;;;;;;21.24;45.94;99922.94;10501537;28;20045;-75
2023/06/27 15:38:55;;;;;;;2.78;0.60;;;;;;;20.87;47.05;99933.81;10502259;28;20449;-75
2023/06/27 15:43:57;;;;;;;2.90;0.68;;;;;;;20.26;48.14;99933.00;10501524;28;20066;-75
2023/06/27 15:48:59;;;;;;;3.13;0.60;;;;;;;19.75;49.53;99934.03;10482938;28;20075;-74
2023/06/27 15:54:01;;;;;;;1.73;0.60;;;;;;;19.81;51.55;99948.72;10500136;28;20044;-74
2023/06/27 15:59:03;;;;;;;0.85;0.60;;;;;;;19.43;54.34;99949.56;10481305;28;20040;-75
2023/06/27 16:04:05;;;;;;;4.22;1.10;;;;;;;19.36;52.97;99940.31;10481776;28;20052;-74
2023/06/27 16:09:07;;;;;;;1.52;0.70;;;;;;;19.70;50.90;99945.94;10482150;28;20086;-75
2023/06/27 16:14:09;;;;;;;1.27;0.68;;;;;;;19.46;52.21;99944.03;10481615;28;20048;-74
2023/06/27 16:19:10;;;;;;;0.88;0.50;;;;;;;19.49;51.21;99958.97;10499109;28;20539;-75
2023/06/27 16:24:12;;;;;;;1.40;0.90;;;;;;;19.69;50.27;99944.25;10499023;28;20106;-74
2023/06/27 16:29:14;;;;;;;5.20;3.00;;;;;;;19.52;50.25;99938.28;10479820;28;20128;-75
2023/06/27 16:34:16;;;;;;;5.97;4.18;;;;;;;19.56;50.92;99945.09;10480210;28;20047;-74
2023/06/27 16:39:18;;;;;;;6.22;5.63;;;;;;;19.47;52.71;99943.06;10498597;28;20409;-74
2023/06/27 16:44:20;;;;;;;21.50;19.50;;;;;;;19.77;50.67;99934.75;10464279;28;20056;-74
2023/06/27 16:49:22;;;;;;;42.55;32.88;;;;;;;19.84;50.14;99944.03;10498771;28;20036;-73
2023/06/27 16:54:24;;;;;;;32.90;28.33;;;;;;;19.51;51.23;99952.56;10498156;28;20044;-74
2023/06/27 16:59:26;;;;;;;27.75;24.80;;;;;;;19.69;50.02;99954.91;10484469;28;20037;-74
2023/06/27 17:04:28;;;;;;;24.75;21.92;;;;;;;19.69;50.87;99954.91;10479161;28;20108;-73
2023/06/27 17:09:29;;;;;;;19.70;17.90;;;;;;;19.53;53.29;99955.97;10505280;28;20063;-73
2023/06/27 17:14:31;;;;;;;9.20;8.30;;;;;;;19.65;56.74;99957.78;10494292;28;20453;-73
2023/06/27 17:19:33;;;;;;;6.97;6.07;;;;;;;19.53;59.42;99950.66;10463949;28;20048;-73
2023/06/27 17:24:35;;;;;;;8.20;4.50;;;;;;;19.63;59.38;99953.56;10513531;22;20048;-71
2023/06/27 17:29:37;;;;;;;6.38;4.53;;;;;;;19.54;60.32;99946.16;10503533;28;20090;-71
2023/06/27 17:34:38;;;;;;;6.22;5.63;;;;;;;19.47;59.79;99940.41;10503359;28;20083;-71
2023/06/27 17:39:40;;;;;;;7.18;6.43;;;;;;;19.46;59.57;99930.72;10503248;28;20123;-71
2023/06/27 17:44:42;;;;;;;10.27;6.82;;;;;;;19.40;59.41;99936.47;10493441;28;20124;-71
2023/06/27 17:49:44;;;;;;;7.03;6.43;;;;;;;19.16;61.25;99941.69;10488863;28;20040;-71
2023/06/27 17:54:46;;;;;;;8.00;7.30;;;;;;;19.16;61.62;99934.53;10502759;28;20068;-72
2023/06/27 17:59:49;;;;;;;14.30;8.32;;;;;;;19.02;64.68;99944.44;10479476;28;20124;-72
2023/06/27 18:04:52;;;;;;;10.32;9.40;;;;;;;19.02;63.84;99945.28;10461792;28;20053;-71
2023/06/27 18:09:54;;;;;;;12.02;11.00;;;;;;;18.90;66.74;99941.66;10501477;28;20086;-72
2023/06/27 18:14:58;;;;;;;12.65;11.35;;;;;;;18.74;67.61;99956.13;10483636;28;20106;-72
2023/06/27 18:20:00;;;;;;;11.07;10.02;;;;;;;18.42;68.80;99951.09;10483897;28;20440;-72
2023/06/27 18:25:02;;;;;;;19.83;9.23;;;;;;;18.29;70.35;99953.69;10503347;28;20127;-71
2023/06/27 18:30:05;;;;;;;8.05;6.72;;;;;;;18.38;69.36;99949.56;10501017;28;20047;-71
2023/06/27 18:35:07;;;;;;;8.23;6.55;;;;;;;18.16;75.25;99950.09;10500852;28;20127;-70
2023/06/27 18:40:10;;;;;;;5.72;4.60;;;;;;;17.68;80.89;99951.38;10500202;28;20116;-71
2023/06/27 18:45:12;;;;;;;8.63;4.32;;;;;;;17.33;85.91;99949.09;10499950;28;20062;-71
2023/06/27 18:50:14;;;;;;;5.63;4.72;;;;;;;17.21;91.73;99948.03;10501121;28;20043;-71
2023/06/27 18:55:16;;;;;;;4.90;3.22;;;;;;;17.08;87.80;99942.59;10499744;28;20485;-71
2023/06/27 19:00:18;;;;;;;5.00;3.70;;;;;;;16.99;93.31;99963.53;10499584;28;20123;-71
2023/06/27 19:05:19;;;;;;;8.50;5.10;;;;;;;16.80;100.00;100027.50;10498827;28;20037;-71
2023/06/27 19:10:21;;;;;;;7.00;2.63;;;;;;;16.06;100.00;100055.44;10498668;28;20036;-69
2023/06/27 19:15:23;;;;;;;8.40;2.03;;;;;;;14.88;100.00;100058.00;10498462;28;20086;-70
2023/06/27 19:20:25;;;;;;;4.70;2.35;;;;;;;14.37;100.00;100011.91;10498140;28;20547;-71
2023/06/27 19:25:27;;;;;;;3.08;1.20;;;;;;;14.34;100.00;100009.41;10499049;28;20490;-70
2023/06/27 19:30:29;;;;;;;3.13;0.82;;;;;;;14.40;100.00;99969.47;10480633;28;20116;-71
2023/06/27 19:35:31;;;;;;;1.85;0.80;;;;;;;14.36;100.00;99965.25;10498609;28;20064;-70
2023/06/27 19:40:34;;;;;;;1.13;0.70;;;;;;;14.58;100.00;99955.38;10498340;28;20040;-71
2023/06/27 19:45:38;;;;;;;2.35;0.70;;;;;;;14.50;100.00;99952.25;10498376;28;20116;-71
2023/06/27 19:50:40;;;;;;;0.57;0.52;;;;;;;14.45;100.00;99953.38;10498361;28;20070;-71
2023/06/27 19:55:42;;;;;;;1.80;0.77;;;;;;;14.32;100.00;99964.53;10498244;28;20036;-70
2023/06/27 20:00:44;;;;;;;1.63;1.10;;;;;;;14.24;100.00;99960.56;10498302;28;20036;-71
2023/06/27 20:05:49;;;;;;;1.52;0.95;;;;;;;14.22;100.00;99965.06;10498094;28;20080;-71
2023/06/27 20:10:51;;;;;;;3.78;0.85;;;;;;;14.53;100.00;99962.69;10499230;28;20037;-71
2023/06/27 20:15:53;;;;;;;1.85;1.00;;;;;;;14.35;100.00;99977.63;10479736;28;20138;-71
2023/06/27 20:20:54;;;;;;;1.95;0.93;;;;;;;14.48;100.00;99964.69;10497315;28;20040;-70
2023/06/27 20:25:56;;;;;;;2.45;1.30;;;;;;;14.38;100.00;99973.97;10497352;28;20440;-71
2023/06/27 20:31:01;;;;;;;0.80;0.80;;;;;;;14.44;100.00;99980.75;10497048;28;20379;-70
2023/06/27 20:36:03;;;;;;;1.17;0.77;;;;;;;14.34;100.00;99978.56;10503554;28;20123;-69
2023/06/27 20:41:04;;;;;;;0.77;0.77;;;;;;;14.08;100.00;99989.53;10504417;28;20116;-69
2023/06/27 20:46:06;;;;;;;1.60;0.90;;;;;;;13.96;100.00;99985.66;10504359;28;20041;-70
2023/06/27 20:51:10;;;;;;;1.25;0.90;;;;;;;13.84;100.00;99976.50;10504353;28;20074;-69
2023/06/27 20:56:12;;;;;;;1.08;0.95;;;;;;;13.79;100.00;99983.78;10486081;28;20052;-71
2023/06/27 21:01:14;;;;;;;3.10;1.25;;;;;;;13.76;100.00;99985.69;10504523;28;20037;-70
2023/06/27 21:06:17;;;;;;;1.02;0.70;;;;;;;13.74;100.00;99987.56;10503732;28;20098;-70
2023/06/27 21:11:18;;;;;;;1.15;0.82;;;;;;;13.84;100.00;99986.22;10485954;28;20079;-71
2023/06/27 21:16:20;;;;;;;1.10;1.00;;;;;;;13.78;100.00;99995.28;10503610;28;20049;-70
2023/06/27 21:21:22;;;;;;;1.88;0.95;;;;;;;13.83;100.00;99992.44;10503057;28;20551;-70
2023/06/27 21:26:25;;;;;;;1.30;0.95;;;;;;;13.78;100.00;99983.88;10503010;28;20041;-70
2023/06/27 21:31:27;;;;;;;1.65;0.93;;;;;;;13.68;100.00;99983.44;10503628;28;20047;-70
2023/06/27 21:36:29;;;;;;;2.38;1.10;;;;;;;13.62;100.00;99981.91;10502744;28;20041;-70
2023/06/27 21:41:30;;;;;;;2.58;1.20;;;;;;;13.67;100.00;99978.19;10502347;28;20143;-70
2023/06/27 21:46:34;;;;;;;1.95;1.20;;;;;;;13.61;100.00;99974.06;10502290;28;20048;-71
2023/06/27 21:51:36;;;;;;;2.58;1.20;;;;;;;13.72;100.00;99970.91;10502059;28;20051;-71
2023/06/27 21:56:37;;;;;;;2.33;1.10;;;;;;;13.94;100.00;99979.56;10501683;28;20044;-70
2023/06/27 22:01:39;;;;;;;1.92;1.00;;;;;;;13.78;100.00;99971.50;10483767;28;20152;-69
2023/06/27 22:06:41;;;;;;;1.35;1.05;;;;;;;13.92;100.00;99970.00;10501159;28;20050;-69
2023/06/27 22:11:45;;;;;;;5.57;1.10;;;;;;;13.95;100.00;99973.38;10501270;28;20105;-70
2023/06/27 22:16:47;;;;;;;2.42;1.02;;;;;;;14.10;100.00;99967.34;10501280;28;20127;-69
2023/06/27 22:21:48;;;;;;;1.70;1.20;;;;;;;14.06;100.00;99962.28;10501049;28;20041;-69
2023/06/27 22:26:50;;;;;;;0.85;0.85;;;;;;;14.14;100.00;99970.72;10500490;28;20056;-70
2023/06/27 22:31:52;;;;;;;3.17;1.38;;;;;;;14.22;100.00;99965.94;10500160;28;20452;-70
2023/06/27 22:36:54;;;;;;;2.28;1.33;;;;;;;14.04;100.00;99972.09;10499804;28;20040;-70
2023/06/27 22:41:55;;;;;;;2.35;1.25;;;;;;;14.07;100.00;99970.13;10499975;28;20238;-70
2023/06/27 22:46:57;;;;;;;1.40;1.20;;;;;;;14.26;100.00;99978.06;10499895;28;20443;-70
2023/06/27 22:51:59;;;;;;;1.75;1.02;;;;;;;14.44;96.29;99976.31;10499143;28;20048;-70
2023/06/27 22:57:01;;;;;;;2.63;0.90;;;;;;;14.56;93.95;99981.03;10500326;28;20052;-69
2023/06/27 23:22:24;;;;;;;1.58;0.90;;;;;;;14.24;96.66;99966.69;10512028;22;20045;-72
2023/06/27 23:27:26;;;;;;;7.78;1.20;;;;;;;14.21;97.66;99964.22;10503330;28;20452;-72
2023/06/27 23:32:30;;;;;;;2.03;1.10;;;;;;;14.23;97.62;99965.00;10501927;28;20074;-72
2023/06/27 23:37:32;;;;;;;2.60;1.20;;;;;;;14.25;97.62;99951.69;10501374;28;20102;-73